sensor_id;sensor_type;location;lat;lon;timestamp;temperature;humidity
21149;DHT22;10732;51.472;6.466;2023-05-09T00:00:01;16.10;99.90
21149;DHT22;10732;51.472;6.466;2023-05-09T00:02:27;16.10;99.90
21149;DHT22;10732;51.472;6.466;2023-05-09T00:04:54;16.20;99.90
21149;DHT22;10732;51.472;6.466;2023-05-09T00:07:21;16.20;99.90
21149;DHT22;10732;51.472;6.466;2023-05-09T00:09:46;16.20;99.90
21149;DHT22;10732;51.472;6.466;2023-05-09T00:12:12;16.20;99.90
21149;DHT22;10732;51.472;6.466;2023-05-09T00:14:38;16.20;99.90
21149;DHT22;10732;51.472;6.466;2023-05-09T00:17:05;16.30;99.90
21149;DHT22;10732;51.472;6.466;2023-05-09T00:19:32;16.20;99.90
21149;DHT22;10732;51.472;6.466;2023-05-09T00:21:57;16.30;99.90
21149;DHT22;10732;51.472;6.466;2023-05-09T00:24:23;16.20;99.90
21149;DHT22;10732;51.472;6.466;2023-05-09T00:26:49;16.20;99.90
21149;DHT22;10732;51.472;6.466;2023-05-09T00:29:14;16.20;99.90
21149;DHT22;10732;51.472;6.466;2023-05-09T00:31:40;16.20;99.90
21149;DHT22;10732;51.472;6.466;2023-05-09T00:34:05;16.20;99.90
21149;DHT22;10732;51.472;6.466;2023-05-09T00:36:31;16.20;99.90
21149;DHT22;10732;51.472;6.466;2023-05-09T00:38:57;16.20;99.90
21149;DHT22;10732;51.472;6.466;2023-05-09T00:41:22;16.20;99.90
21149;DHT22;10732;51.472;6.466;2023-05-09T00:43:48;16.30;99.90
21149;DHT22;10732;51.472;6.466;2023-05-09T00:46:13;16.30;99.90
21149;DHT22;10732;51.472;6.466;2023-05-09T00:48:39;16.20;99.90
21149;DHT22;10732;51.472;6.466;2023-05-09T00:51:05;16.20;99.90
21149;DHT22;10732;51.472;6.466;2023-05-09T00:53:31;16.10;99.90
21149;DHT22;10732;51.472;6.466;2023-05-09T00:55:57;16.10;99.90
21149;DHT22;10732;51.472;6.466;2023-05-09T00:58:24;16.10;99.90
21149;DHT22;10732;51.472;6.466;2023-05-09T01:00:50;16.20;99.90
21149;DHT22;10732;51.472;6.466;2023-05-09T01:03:16;16.20;99.90
21149;DHT22;10732;51.472;6.466;2023-05-09T01:06:10;16.10;99.90
21149;DHT22;10732;51.472;6.466;2023-05-09T01:08:57;16.10;99.90
21149;DHT22;10732;51.472;6.466;2023-05-09T01:11:32;16.10;99.90
21149;DHT22;10732;51.472;6.466;2023-05-09T01:17:04;16.10;99.90
21149;DHT22;10732;51.472;6.466;2023-05-09T01:22:29;16.10;99.90
21149;DHT22;10732;51.472;6.466;2023-05-09T01:25:06;16.00;99.90
21149;DHT22;10732;51.472;6.466;2023-05-09T01:30:28;15.90;99.90
21149;DHT22;10732;51.472;6.466;2023-05-09T01:32:58;15.90;99.90
21149;DHT22;10732;51.472;6.466;2023-05-09T01:35:25;16.00;99.90
21149;DHT22;10732;51.472;6.466;2023-05-09T01:37:53;16.00;99.90
21149;DHT22;10732;51.472;6.466;2023-05-09T01:40:20;16.00;99.90
21149;DHT22;10732;51.472;6.466;2023-05-09T01:42:58;16.00;99.90
21149;DHT22;10732;51.472;6.466;2023-05-09T01:45:26;16.00;99.90
21149;DHT22;10732;51.472;6.466;2023-05-09T01:47:53;15.90;99.90
21149;DHT22;10732;51.472;6.466;2023-05-09T01:50:19;15.90;99.90
21149;DHT22;10732;51.472;6.466;2023-05-09T01:52:47;15.90;99.90
21149;DHT22;10732;51.472;6.466;2023-05-09T01:55:14;15.90;99.90
21149;DHT22;10732;51.472;6.466;2023-05-09T01:57:42;15.90;99.90
21149;DHT22;10732;51.472;6.466;2023-05-09T02:00:09;16.00;99.90
21149;DHT22;10732;51.472;6.466;2023-05-09T02:02:37;15.90;99.90
21149;DHT22;10732;51.472;6.466;2023-05-09T02:05:04;15.90;99.90
21149;DHT22;10732;51.472;6.466;2023-05-09T02:07:30;15.90;99.90
21149;DHT22;10732;51.472;6.466;2023-05-09T02:09:57;15.90;99.90
21149;DHT22;10732;51.472;6.466;2023-05-09T02:12:23;16.00;99.90
21149;DHT22;10732;51.472;6.466;2023-05-09T02:14:49;15.90;99.90
21149;DHT22;10732;51.472;6.466;2023-05-09T02:17:15;15.90;99.90
21149;DHT22;10732;51.472;6.466;2023-05-09T02:19:42;15.90;99.90
21149;DHT22;10732;51.472;6.466;2023-05-09T02:22:08;15.90;99.90
21149;DHT22;10732;51.472;6.466;2023-05-09T02:24:35;15.90;99.90
21149;DHT22;10732;51.472;6.466;2023-05-09T02:27:04;15.90;99.90
21149;DHT22;10732;51.472;6.466;2023-05-09T02:29:36;15.90;99.90
21149;DHT22;10732;51.472;6.466;2023-05-09T02:32:11;15.90;99.90
21149;DHT22;10732;51.472;6.466;2023-05-09T02:34:37;15.80;99.90
21149;DHT22;10732;51.472;6.466;2023-05-09T02:37:03;15.80;99.90
21149;DHT22;10732;51.472;6.466;2023-05-09T02:39:30;15.80;99.90
21149;DHT22;10732;51.472;6.466;2023-05-09T02:41:56;15.80;99.90
21149;DHT22;10732;51.472;6.466;2023-05-09T02:44:26;15.80;99.90
21149;DHT22;10732;51.472;6.466;2023-05-09T02:46:51;15.80;99.90
21149;DHT22;10732;51.472;6.466;2023-05-09T02:49:17;15.70;99.90
21149;DHT22;10732;51.472;6.466;2023-05-09T02:51:42;15.70;99.90
21149;DHT22;10732;51.472;6.466;2023-05-09T02:54:08;15.70;99.90
21149;DHT22;10732;51.472;6.466;2023-05-09T02:56:34;15.70;99.90
21149;DHT22;10732;51.472;6.466;2023-05-09T02:58:59;15.70;99.90
21149;DHT22;10732;51.472;6.466;2023-05-09T03:01:25;15.70;99.90
21149;DHT22;10732;51.472;6.466;2023-05-09T03:03:50;15.80;99.90
21149;DHT22;10732;51.472;6.466;2023-05-09T03:06:16;15.80;99.90
21149;DHT22;10732;51.472;6.466;2023-05-09T03:08:42;15.80;99.90
21149;DHT22;10732;51.472;6.466;2023-05-09T03:11:07;15.70;99.90
21149;DHT22;10732;51.472;6.466;2023-05-09T03:13:33;15.70;99.90
21149;DHT22;10732;51.472;6.466;2023-05-09T03:15:58;15.80;99.90
21149;DHT22;10732;51.472;6.466;2023-05-09T03:18:24;15.70;99.90
21149;DHT22;10732;51.472;6.466;2023-05-09T03:20:49;15.70;99.90
21149;DHT22;10732;51.472;6.466;2023-05-09T03:23:15;15.70;99.90
21149;DHT22;10732;51.472;6.466;2023-05-09T03:25:41;15.60;99.90
21149;DHT22;10732;51.472;6.466;2023-05-09T03:28:06;15.60;99.90
21149;DHT22;10732;51.472;6.466;2023-05-09T03:30:32;15.60;99.90
21149;DHT22;10732;51.472;6.466;2023-05-09T03:32:57;15.50;99.90
21149;DHT22;10732;51.472;6.466;2023-05-09T03:35:23;15.50;99.90
21149;DHT22;10732;51.472;6.466;2023-05-09T03:37:48;15.40;99.90
21149;DHT22;10732;51.472;6.466;2023-05-09T03:40:14;15.30;99.90
21149;DHT22;10732;51.472;6.466;2023-05-09T03:42:39;15.40;99.90
21149;DHT22;10732;51.472;6.466;2023-05-09T03:45:05;15.40;99.90
21149;DHT22;10732;51.472;6.466;2023-05-09T03:47:32;15.50;99.90
21149;DHT22;10732;51.472;6.466;2023-05-09T03:49:58;15.50;99.90
21149;DHT22;10732;51.472;6.466;2023-05-09T03:52:23;15.60;99.90
21149;DHT22;10732;51.472;6.466;2023-05-09T03:54:49;15.60;99.90
21149;DHT22;10732;51.472;6.466;2023-05-09T03:57:14;15.50;99.90
21149;DHT22;10732;51.472;6.466;2023-05-09T03:59:40;15.60;99.90
21149;DHT22;10732;51.472;6.466;2023-05-09T04:02:06;15.50;99.90
21149;DHT22;10732;51.472;6.466;2023-05-09T04:04:31;15.50;99.90
21149;DHT22;10732;51.472;6.466;2023-05-09T04:06:57;15.40;99.90
21149;DHT22;10732;51.472;6.466;2023-05-09T04:09:22;15.50;99.90
21149;DHT22;10732;51.472;6.466;2023-05-09T04:11:48;15.50;99.90
21149;DHT22;10732;51.472;6.466;2023-05-09T04:14:14;15.50;99.90
21149;DHT22;10732;51.472;6.466;2023-05-09T04:16:40;15.50;99.90
21149;DHT22;10732;51.472;6.466;2023-05-09T04:19:06;15.50;99.90
21149;DHT22;10732;51.472;6.466;2023-05-09T04:21:31;15.40;99.90
21149;DHT22;10732;51.472;6.466;2023-05-09T04:23:57;15.40;99.90
21149;DHT22;10732;51.472;6.466;2023-05-09T04:26:23;15.30;99.90
21149;DHT22;10732;51.472;6.466;2023-05-09T04:28:49;15.40;99.90
21149;DHT22;10732;51.472;6.466;2023-05-09T04:31:15;15.40;99.90
21149;DHT22;10732;51.472;6.466;2023-05-09T04:33:40;15.40;99.90
21149;DHT22;10732;51.472;6.466;2023-05-09T04:36:06;15.40;99.90
21149;DHT22;10732;51.472;6.466;2023-05-09T04:38:32;15.30;99.90
21149;DHT22;10732;51.472;6.466;2023-05-09T04:40:57;15.40;99.90
21149;DHT22;10732;51.472;6.466;2023-05-09T04:43:23;15.30;99.90
21149;DHT22;10732;51.472;6.466;2023-05-09T04:45:52;15.40;99.90
21149;DHT22;10732;51.472;6.466;2023-05-09T04:48:17;15.30;99.90
21149;DHT22;10732;51.472;6.466;2023-05-09T04:50:43;15.30;99.90
21149;DHT22;10732;51.472;6.466;2023-05-09T04:53:09;15.30;99.90
21149;DHT22;10732;51.472;6.466;2023-05-09T04:55:35;15.40;99.90
21149;DHT22;10732;51.472;6.466;2023-05-09T04:58:01;15.40;99.90
21149;DHT22;10732;51.472;6.466;2023-05-09T05:00:26;15.40;99.90
21149;DHT22;10732;51.472;6.466;2023-05-09T05:02:52;15.30;99.90
21149;DHT22;10732;51.472;6.466;2023-05-09T05:05:17;15.30;99.90
21149;DHT22;10732;51.472;6.466;2023-05-09T05:07:43;15.40;99.90
21149;DHT22;10732;51.472;6.466;2023-05-09T05:10:09;15.40;99.90
21149;DHT22;10732;51.472;6.466;2023-05-09T05:12:35;15.50;99.90
21149;DHT22;10732;51.472;6.466;2023-05-09T05:15:00;15.50;99.90
21149;DHT22;10732;51.472;6.466;2023-05-09T05:17:26;15.50;99.90
21149;DHT22;10732;51.472;6.466;2023-05-09T05:19:53;15.50;99.90
21149;DHT22;10732;51.472;6.466;2023-05-09T05:22:19;15.50;99.90
21149;DHT22;10732;51.472;6.466;2023-05-09T05:24:44;15.40;99.90
21149;DHT22;10732;51.472;6.466;2023-05-09T05:27:10;15.40;99.90
21149;DHT22;10732;51.472;6.466;2023-05-09T05:29:35;15.40;99.90
21149;DHT22;10732;51.472;6.466;2023-05-09T05:32:01;15.50;99.90
21149;DHT22;10732;51.472;6.466;2023-05-09T05:34:26;15.50;99.90
21149;DHT22;10732;51.472;6.466;2023-05-09T05:36:52;15.50;99.90
21149;DHT22;10732;51.472;6.466;2023-05-09T05:39:18;15.60;99.90
21149;DHT22;10732;51.472;6.466;2023-05-09T05:41:43;15.70;99.90
21149;DHT22;10732;51.472;6.466;2023-05-09T05:44:09;15.60;99.90
21149;DHT22;10732;51.472;6.466;2023-05-09T05:46:34;15.60;99.90
21149;DHT22;10732;51.472;6.466;2023-05-09T05:49:00;15.70;99.90
21149;DHT22;10732;51.472;6.466;2023-05-09T05:51:25;15.70;99.90
21149;DHT22;10732;51.472;6.466;2023-05-09T05:53:51;15.60;99.90
21149;DHT22;10732;51.472;6.466;2023-05-09T05:56:16;15.70;99.90
21149;DHT22;10732;51.472;6.466;2023-05-09T05:58:42;15.70;99.90
21149;DHT22;10732;51.472;6.466;2023-05-09T06:01:07;15.70;99.90
21149;DHT22;10732;51.472;6.466;2023-05-09T06:03:33;15.90;99.90
21149;DHT22;10732;51.472;6.466;2023-05-09T06:05:58;16.00;99.90
21149;DHT22;10732;51.472;6.466;2023-05-09T06:08:24;16.20;99.90
21149;DHT22;10732;51.472;6.466;2023-05-09T06:10:49;16.10;99.90
21149;DHT22;10732;51.472;6.466;2023-05-09T06:13:15;16.10;99.90
21149;DHT22;10732;51.472;6.466;2023-05-09T06:15:40;16.10;99.90
21149;DHT22;10732;51.472;6.466;2023-05-09T06:18:06;16.20;99.90
21149;DHT22;10732;51.472;6.466;2023-05-09T06:20:33;16.40;99.90
21149;DHT22;10732;51.472;6.466;2023-05-09T06:23:00;16.60;99.90
21149;DHT22;10732;51.472;6.466;2023-05-09T06:25:25;16.40;99.90
21149;DHT22;10732;51.472;6.466;2023-05-09T06:27:51;16.40;99.90
21149;DHT22;10732;51.472;6.466;2023-05-09T06:30:16;16.50;99.90
21149;DHT22;10732;51.472;6.466;2023-05-09T06:32:42;16.40;99.90
21149;DHT22;10732;51.472;6.466;2023-05-09T06:35:07;16.30;99.90
21149;DHT22;10732;51.472;6.466;2023-05-09T06:37:33;16.30;99.90
21149;DHT22;10732;51.472;6.466;2023-05-09T06:39:59;16.20;99.90
21149;DHT22;10732;51.472;6.466;2023-05-09T06:42:24;16.10;99.90
21149;DHT22;10732;51.472;6.466;2023-05-09T06:44:50;16.20;99.90
21149;DHT22;10732;51.472;6.466;2023-05-09T06:47:16;16.20;99.90
21149;DHT22;10732;51.472;6.466;2023-05-09T06:49:41;16.30;99.90
21149;DHT22;10732;51.472;6.466;2023-05-09T06:52:07;16.20;99.90
21149;DHT22;10732;51.472;6.466;2023-05-09T06:54:32;16.30;99.90
21149;DHT22;10732;51.472;6.466;2023-05-09T06:56:58;16.30;99.90
21149;DHT22;10732;51.472;6.466;2023-05-09T06:59:24;16.40;99.90
21149;DHT22;10732;51.472;6.466;2023-05-09T07:01:49;16.50;99.90
21149;DHT22;10732;51.472;6.466;2023-05-09T07:04:15;16.60;99.90
21149;DHT22;10732;51.472;6.466;2023-05-09T07:06:41;16.90;99.90
21149;DHT22;10732;51.472;6.466;2023-05-09T07:09:06;17.10;99.90
21149;DHT22;10732;51.472;6.466;2023-05-09T07:11:34;17.10;99.90
21149;DHT22;10732;51.472;6.466;2023-05-09T07:14:00;16.90;99.90
21149;DHT22;10732;51.472;6.466;2023-05-09T07:16:25;16.90;99.90
21149;DHT22;10732;51.472;6.466;2023-05-09T07:18:54;17.00;99.90
21149;DHT22;10732;51.472;6.466;2023-05-09T07:21:19;17.30;99.90
21149;DHT22;10732;51.472;6.466;2023-05-09T07:23:45;17.90;99.90
21149;DHT22;10732;51.472;6.466;2023-05-09T07:26:10;18.40;99.90
21149;DHT22;10732;51.472;6.466;2023-05-09T07:28:36;18.70;99.90
21149;DHT22;10732;51.472;6.466;2023-05-09T07:31:01;18.80;99.90
21149;DHT22;10732;51.472;6.466;2023-05-09T07:33:27;18.90;99.90
21149;DHT22;10732;51.472;6.466;2023-05-09T07:35:53;19.10;99.90
21149;DHT22;10732;51.472;6.466;2023-05-09T07:38:18;19.30;99.90
21149;DHT22;10732;51.472;6.466;2023-05-09T07:40:44;19.00;99.90
21149;DHT22;10732;51.472;6.466;2023-05-09T07:43:09;19.10;99.90
21149;DHT22;10732;51.472;6.466;2023-05-09T07:45:35;19.40;99.90
21149;DHT22;10732;51.472;6.466;2023-05-09T07:48:00;19.70;99.90
21149;DHT22;10732;51.472;6.466;2023-05-09T07:50:26;20.00;99.90
21149;DHT22;10732;51.472;6.466;2023-05-09T07:52:52;20.10;99.90
21149;DHT22;10732;51.472;6.466;2023-05-09T07:55:17;20.90;99.90
21149;DHT22;10732;51.472;6.466;2023-05-09T07:57:43;21.20;99.90
21149;DHT22;10732;51.472;6.466;2023-05-09T08:00:09;21.60;99.90
21149;DHT22;10732;51.472;6.466;2023-05-09T08:02:35;22.50;99.90
21149;DHT22;10732;51.472;6.466;2023-05-09T08:05:00;22.10;99.90
21149;DHT22;10732;51.472;6.466;2023-05-09T08:07:26;21.30;99.90
21149;DHT22;10732;51.472;6.466;2023-05-09T08:09:51;22.00;99.90
21149;DHT22;10732;51.472;6.466;2023-05-09T08:12:17;20.60;99.90
21149;DHT22;10732;51.472;6.466;2023-05-09T08:14:42;20.40;99.90
21149;DHT22;10732;51.472;6.466;2023-05-09T08:17:08;22.00;99.90
21149;DHT22;10732;51.472;6.466;2023-05-09T08:19:34;22.20;99.90
21149;DHT22;10732;51.472;6.466;2023-05-09T08:21:59;23.30;99.90
21149;DHT22;10732;51.472;6.466;2023-05-09T08:24:25;22.60;99.90
21149;DHT22;10732;51.472;6.466;2023-05-09T08:26:50;22.40;99.90
21149;DHT22;10732;51.472;6.466;2023-05-09T08:29:16;21.50;99.90
21149;DHT22;10732;51.472;6.466;2023-05-09T08:31:42;21.10;99.90
21149;DHT22;10732;51.472;6.466;2023-05-09T08:34:07;20.70;99.90
21149;DHT22;10732;51.472;6.466;2023-05-09T08:36:33;20.10;99.90
21149;DHT22;10732;51.472;6.466;2023-05-09T08:38:59;20.60;99.90
21149;DHT22;10732;51.472;6.466;2023-05-09T08:41:25;21.20;99.90
21149;DHT22;10732;51.472;6.466;2023-05-09T08:43:54;22.20;99.90
21149;DHT22;10732;51.472;6.466;2023-05-09T08:46:50;22.80;99.90
21149;DHT22;10732;51.472;6.466;2023-05-09T08:49:17;23.00;99.90
21149;DHT22;10732;51.472;6.466;2023-05-09T08:51:45;22.80;99.90
21149;DHT22;10732;51.472;6.466;2023-05-09T08:54:12;22.90;99.90
21149;DHT22;10732;51.472;6.466;2023-05-09T08:56:38;22.60;99.90
21149;DHT22;10732;51.472;6.466;2023-05-09T08:59:05;23.10;99.90
21149;DHT22;10732;51.472;6.466;2023-05-09T09:01:32;23.80;99.90
21149;DHT22;10732;51.472;6.466;2023-05-09T09:04:00;23.70;99.90
21149;DHT22;10732;51.472;6.466;2023-05-09T09:06:27;23.20;99.90
21149;DHT22;10732;51.472;6.466;2023-05-09T09:08:54;22.70;99.90
21149;DHT22;10732;51.472;6.466;2023-05-09T09:11:21;23.20;99.90
21149;DHT22;10732;51.472;6.466;2023-05-09T09:13:50;24.40;99.90
21149;DHT22;10732;51.472;6.466;2023-05-09T09:16:19;22.90;99.90
21149;DHT22;10732;51.472;6.466;2023-05-09T09:18:45;22.30;99.90
21149;DHT22;10732;51.472;6.466;2023-05-09T09:21:14;21.20;99.90
21149;DHT22;10732;51.472;6.466;2023-05-09T09:23:41;21.30;99.90
21149;DHT22;10732;51.472;6.466;2023-05-09T09:26:08;21.30;99.90
21149;DHT22;10732;51.472;6.466;2023-05-09T09:28:33;20.80;99.90
21149;DHT22;10732;51.472;6.466;2023-05-09T09:30:59;21.00;99.90
21149;DHT22;10732;51.472;6.466;2023-05-09T09:33:26;21.20;99.90
21149;DHT22;10732;51.472;6.466;2023-05-09T09:35:54;20.40;99.90
21149;DHT22;10732;51.472;6.466;2023-05-09T09:38:20;20.50;99.90
21149;DHT22;10732;51.472;6.466;2023-05-09T09:40:57;20.40;99.90
21149;DHT22;10732;51.472;6.466;2023-05-09T09:43:29;20.80;99.90
21149;DHT22;10732;51.472;6.466;2023-05-09T09:45:55;21.10;99.90
21149;DHT22;10732;51.472;6.466;2023-05-09T09:48:25;21.40;99.90
21149;DHT22;10732;51.472;6.466;2023-05-09T09:50:53;21.90;99.90
21149;DHT22;10732;51.472;6.466;2023-05-09T09:53:20;21.90;99.90
21149;DHT22;10732;51.472;6.466;2023-05-09T09:55:50;22.30;99.90
21149;DHT22;10732;51.472;6.466;2023-05-09T09:58:17;22.70;99.90
21149;DHT22;10732;51.472;6.466;2023-05-09T10:00:43;22.60;99.90
21149;DHT22;10732;51.472;6.466;2023-05-09T10:03:14;22.10;99.90
21149;DHT22;10732;51.472;6.466;2023-05-09T10:05:40;21.10;99.90
21149;DHT22;10732;51.472;6.466;2023-05-09T10:08:06;20.70;99.90
21149;DHT22;10732;51.472;6.466;2023-05-09T10:10:34;21.00;99.90
21149;DHT22;10732;51.472;6.466;2023-05-09T10:13:09;20.70;99.90
21149;DHT22;10732;51.472;6.466;2023-05-09T10:15:35;20.40;99.90
21149;DHT22;10732;51.472;6.466;2023-05-09T10:18:03;20.20;99.90
21149;DHT22;10732;51.472;6.466;2023-05-09T10:20:33;20.20;99.90
21149;DHT22;10732;51.472;6.466;2023-05-09T10:23:03;20.30;99.90
21149;DHT22;10732;51.472;6.466;2023-05-09T10:28:03;19.90;99.90
21149;DHT22;10732;51.472;6.466;2023-05-09T10:30:36;20.00;99.90
21149;DHT22;10732;51.472;6.466;2023-05-09T10:33:09;20.00;99.90
21149;DHT22;10732;51.472;6.466;2023-05-09T10:35:40;20.00;99.90
21149;DHT22;10732;51.472;6.466;2023-05-09T10:38:08;19.60;99.90
21149;DHT22;10732;51.472;6.466;2023-05-09T10:40:36;19.90;99.90
21149;DHT22;10732;51.472;6.466;2023-05-09T10:43:02;20.20;99.90
21149;DHT22;10732;51.472;6.466;2023-05-09T10:45:29;20.40;99.90
21149;DHT22;10732;51.472;6.466;2023-05-09T10:47:56;20.30;99.90
21149;DHT22;10732;51.472;6.466;2023-05-09T10:50:23;20.30;99.90
21149;DHT22;10732;51.472;6.466;2023-05-09T10:55:37;20.40;99.90
21149;DHT22;10732;51.472;6.466;2023-05-09T10:58:21;20.40;99.90
21149;DHT22;10732;51.472;6.466;2023-05-09T11:00:48;20.50;99.90
21149;DHT22;10732;51.472;6.466;2023-05-09T11:03:14;20.70;99.90
21149;DHT22;10732;51.472;6.466;2023-05-09T11:05:42;21.00;99.90
21149;DHT22;10732;51.472;6.466;2023-05-09T11:08:25;21.50;99.90
21149;DHT22;10732;51.472;6.466;2023-05-09T11:11:22;21.90;99.90
21149;DHT22;10732;51.472;6.466;2023-05-09T11:13:56;22.10;99.90
21149;DHT22;10732;51.472;6.466;2023-05-09T11:16:25;22.10;99.90
21149;DHT22;10732;51.472;6.466;2023-05-09T11:18:51;21.90;99.90
21149;DHT22;10732;51.472;6.466;2023-05-09T11:21:17;21.80;99.90
21149;DHT22;10732;51.472;6.466;2023-05-09T11:23:44;21.80;99.90
21149;DHT22;10732;51.472;6.466;2023-05-09T11:26:10;21.50;99.90
21149;DHT22;10732;51.472;6.466;2023-05-09T11:28:37;21.50;99.90
21149;DHT22;10732;51.472;6.466;2023-05-09T11:31:16;21.30;99.90
21149;DHT22;10732;51.472;6.466;2023-05-09T11:33:44;21.50;99.90
21149;DHT22;10732;51.472;6.466;2023-05-09T11:36:30;21.10;99.90
21149;DHT22;10732;51.472;6.466;2023-05-09T11:39:09;21.20;99.90
21149;DHT22;10732;51.472;6.466;2023-05-09T11:41:45;21.30;99.90
21149;DHT22;10732;51.472;6.466;2023-05-09T11:44:19;21.50;99.90
21149;DHT22;10732;51.472;6.466;2023-05-09T11:46:45;21.40;99.90
21149;DHT22;10732;51.472;6.466;2023-05-09T11:49:11;21.40;99.90
21149;DHT22;10732;51.472;6.466;2023-05-09T11:51:38;21.40;99.90
21149;DHT22;10732;51.472;6.466;2023-05-09T11:54:07;21.60;99.90
21149;DHT22;10732;51.472;6.466;2023-05-09T11:56:34;21.90;99.90
21149;DHT22;10732;51.472;6.466;2023-05-09T11:59:00;21.90;99.90
21149;DHT22;10732;51.472;6.466;2023-05-09T12:01:30;21.90;99.90
21149;DHT22;10732;51.472;6.466;2023-05-09T12:03:57;21.80;99.90
21149;DHT22;10732;51.472;6.466;2023-05-09T12:06:23;21.90;99.90
21149;DHT22;10732;51.472;6.466;2023-05-09T12:08:50;21.90;99.90
21149;DHT22;10732;51.472;6.466;2023-05-09T12:11:16;21.90;99.90
21149;DHT22;10732;51.472;6.466;2023-05-09T12:13:46;21.70;99.90
21149;DHT22;10732;51.472;6.466;2023-05-09T12:16:13;21.60;99.90
21149;DHT22;10732;51.472;6.466;2023-05-09T12:21:11;21.30;99.90
21149;DHT22;10732;51.472;6.466;2023-05-09T12:23:37;21.20;99.90
21149;DHT22;10732;51.472;6.466;2023-05-09T12:26:02;21.00;99.90
21149;DHT22;10732;51.472;6.466;2023-05-09T12:28:28;20.60;99.90
21149;DHT22;10732;51.472;6.466;2023-05-09T12:30:54;20.50;99.90
21149;DHT22;10732;51.472;6.466;2023-05-09T12:33:20;20.10;99.90
21149;DHT22;10732;51.472;6.466;2023-05-09T12:35:47;19.70;99.90
21149;DHT22;10732;51.472;6.466;2023-05-09T12:38:22;19.20;99.90
21149;DHT22;10732;51.472;6.466;2023-05-09T12:40:59;18.90;99.90
21149;DHT22;10732;51.472;6.466;2023-05-09T12:43:25;18.70;99.90
21149;DHT22;10732;51.472;6.466;2023-05-09T12:45:54;18.20;99.90
21149;DHT22;10732;51.472;6.466;2023-05-09T12:48:21;17.70;99.90
21149;DHT22;10732;51.472;6.466;2023-05-09T12:50:48;17.50;99.90
21149;DHT22;10732;51.472;6.466;2023-05-09T12:53:25;17.70;99.90
21149;DHT22;10732;51.472;6.466;2023-05-09T12:56:01;17.70;99.90
21149;DHT22;10732;51.472;6.466;2023-05-09T12:58:29;17.80;99.90
21149;DHT22;10732;51.472;6.466;2023-05-09T13:00:55;17.80;99.90
21149;DHT22;10732;51.472;6.466;2023-05-09T13:05:54;18.20;99.90
21149;DHT22;10732;51.472;6.466;2023-05-09T13:08:20;18.40;99.90
21149;DHT22;10732;51.472;6.466;2023-05-09T13:10:46;18.50;99.90
21149;DHT22;10732;51.472;6.466;2023-05-09T13:13:15;18.30;99.90
21149;DHT22;10732;51.472;6.466;2023-05-09T13:15:42;18.30;99.90
21149;DHT22;10732;51.472;6.466;2023-05-09T13:18:07;18.40;99.90
21149;DHT22;10732;51.472;6.466;2023-05-09T13:20:33;18.50;99.90
21149;DHT22;10732;51.472;6.466;2023-05-09T13:23:00;18.40;99.90
21149;DHT22;10732;51.472;6.466;2023-05-09T13:25:25;18.40;99.90
21149;DHT22;10732;51.472;6.466;2023-05-09T13:27:51;18.40;99.90
21149;DHT22;10732;51.472;6.466;2023-05-09T13:30:17;18.50;99.90
21149;DHT22;10732;51.472;6.466;2023-05-09T13:32:43;18.40;99.90
21149;DHT22;10732;51.472;6.466;2023-05-09T13:35:09;18.50;99.90
21149;DHT22;10732;51.472;6.466;2023-05-09T13:37:34;18.60;99.90
21149;DHT22;10732;51.472;6.466;2023-05-09T13:40:01;18.40;99.90
21149;DHT22;10732;51.472;6.466;2023-05-09T13:42:27;18.30;99.90
21149;DHT22;10732;51.472;6.466;2023-05-09T13:44:52;18.20;99.90
21149;DHT22;10732;51.472;6.466;2023-05-09T13:47:18;18.20;99.90
21149;DHT22;10732;51.472;6.466;2023-05-09T13:49:43;18.10;99.90
21149;DHT22;10732;51.472;6.466;2023-05-09T13:52:09;18.00;99.90
21149;DHT22;10732;51.472;6.466;2023-05-09T13:54:34;18.10;99.90
21149;DHT22;10732;51.472;6.466;2023-05-09T13:57:04;18.00;99.90
21149;DHT22;10732;51.472;6.466;2023-05-09T13:59:30;17.90;99.90
21149;DHT22;10732;51.472;6.466;2023-05-09T14:01:57;17.80;99.90
21149;DHT22;10732;51.472;6.466;2023-05-09T14:04:24;17.90;99.90
21149;DHT22;10732;51.472;6.466;2023-05-09T14:06:51;18.00;99.90
21149;DHT22;10732;51.472;6.466;2023-05-09T14:09:16;17.80;99.90
21149;DHT22;10732;51.472;6.466;2023-05-09T14:11:42;17.80;99.90
21149;DHT22;10732;51.472;6.466;2023-05-09T14:14:07;17.90;99.90
21149;DHT22;10732;51.472;6.466;2023-05-09T14:16:33;17.70;99.90
21149;DHT22;10732;51.472;6.466;2023-05-09T14:18:58;17.40;99.90
21149;DHT22;10732;51.472;6.466;2023-05-09T14:21:24;17.30;99.90
21149;DHT22;10732;51.472;6.466;2023-05-09T14:23:50;17.20;99.90
21149;DHT22;10732;51.472;6.466;2023-05-09T14:26:16;17.30;99.90
21149;DHT22;10732;51.472;6.466;2023-05-09T14:28:41;17.30;99.90
21149;DHT22;10732;51.472;6.466;2023-05-09T14:31:08;17.30;99.90
21149;DHT22;10732;51.472;6.466;2023-05-09T14:33:34;17.20;99.90
21149;DHT22;10732;51.472;6.466;2023-05-09T14:36:03;17.10;99.90
21149;DHT22;10732;51.472;6.466;2023-05-09T14:38:29;17.20;99.90
21149;DHT22;10732;51.472;6.466;2023-05-09T14:40:55;17.20;99.90
21149;DHT22;10732;51.472;6.466;2023-05-09T14:43:21;17.40;99.90
21149;DHT22;10732;51.472;6.466;2023-05-09T14:45:46;17.40;99.90
21149;DHT22;10732;51.472;6.466;2023-05-09T14:48:12;17.40;99.90
21149;DHT22;10732;51.472;6.466;2023-05-09T14:50:38;17.40;99.90
21149;DHT22;10732;51.472;6.466;2023-05-09T14:53:03;17.40;99.90
21149;DHT22;10732;51.472;6.466;2023-05-09T14:55:29;17.30;99.90
21149;DHT22;10732;51.472;6.466;2023-05-09T14:57:55;17.30;99.90
21149;DHT22;10732;51.472;6.466;2023-05-09T15:00:22;17.10;99.90
21149;DHT22;10732;51.472;6.466;2023-05-09T15:02:48;17.20;99.90
21149;DHT22;10732;51.472;6.466;2023-05-09T15:05:14;17.10;99.90
21149;DHT22;10732;51.472;6.466;2023-05-09T15:07:41;17.10;99.90
21149;DHT22;10732;51.472;6.466;2023-05-09T15:10:06;17.30;99.90
21149;DHT22;10732;51.472;6.466;2023-05-09T15:12:32;17.20;99.90
21149;DHT22;10732;51.472;6.466;2023-05-09T15:15:14;17.20;99.90
21149;DHT22;10732;51.472;6.466;2023-05-09T15:17:41;17.30;99.90
21149;DHT22;10732;51.472;6.466;2023-05-09T15:20:07;17.20;99.90
21149;DHT22;10732;51.472;6.466;2023-05-09T15:22:32;17.10;99.90
21149;DHT22;10732;51.472;6.466;2023-05-09T15:24:59;17.10;99.90
21149;DHT22;10732;51.472;6.466;2023-05-09T15:27:25;17.10;99.90
21149;DHT22;10732;51.472;6.466;2023-05-09T15:29:51;17.10;99.90
21149;DHT22;10732;51.472;6.466;2023-05-09T15:32:17;17.00;99.90
21149;DHT22;10732;51.472;6.466;2023-05-09T15:34:42;17.10;99.90
21149;DHT22;10732;51.472;6.466;2023-05-09T15:37:08;17.00;99.90
21149;DHT22;10732;51.472;6.466;2023-05-09T15:39:34;17.00;99.90
21149;DHT22;10732;51.472;6.466;2023-05-09T15:41:59;16.70;99.90
21149;DHT22;10732;51.472;6.466;2023-05-09T15:44:25;16.70;99.90
21149;DHT22;10732;51.472;6.466;2023-05-09T15:46:51;16.80;99.90